Time;durP1;ratioP1;P1;durP2;ratioP2;P2;SDS_P1;SDS_P2;PMS_P1;PMS_P2;Temp;Humidity;BMP_temperature;BMP_pressure;BME280_temperature;BME280_humidity;BME280_pressure;Samples;Min_cycle;Max_cycle;Signal;HPM_P1;HPM_P2
2022/05/27 00:04:26;;;;;;;1.67;0.90;;;19.50;62.20;;;;;;10028797;28;20045;-64
2022/05/27 00:09:17;;;;;;;2.03;1.30;;;19.40;62.40;;;;;;10029176;28;20623;-65
2022/05/27 00:14:07;;;;;;;1.42;1.33;;;19.40;62.60;;;;;;10017859;28;20358;-60
2022/05/27 00:18:59;;;;;;;3.65;1.48;;;19.40;62.80;;;;;;10040148;28;20076;-65
2022/05/27 00:23:50;;;;;;;2.05;1.10;;;19.30;63.00;;;;;;10043294;28;20480;-60
2022/05/27 00:28:41;;;;;;;2.45;1.40;;;19.20;63.40;;;;;;10035291;28;20014;-64
2022/05/27 00:33:34;;;;;;;1.50;1.20;;;19.30;63.50;;;;;;10033031;28;20033;-67
2022/05/27 00:38:24;;;;;;;2.30;1.35;;;19.40;63.50;;;;;;10004908;28;20520;-66
2022/05/27 00:43:15;;;;;;;4.28;1.20;;;19.30;63.80;;;;;;10019059;28;20064;-61
2022/05/27 00:48:13;;;;;;;1.52;1.13;;;19.30;63.60;;;;;;10015126;28;20046;-65
2022/05/27 00:53:07;;;;;;;2.00;1.02;;;19.20;64.00;;;;;;10030431;28;20029;-66
2022/05/27 00:58:08;;;;;;;2.97;1.75;;;19.00;64.30;;;;;;10038407;28;20106;-66
2022/05/27 01:03:00;;;;;;;1.83;1.33;;;19.00;64.40;;;;;;10029509;28;20018;-62
2022/05/27 01:07:55;;;;;;;3.38;1.10;;;19.10;64.30;;;;;;10002137;28;20021;-65
2022/05/27 01:13:01;;;;;;;2.33;1.25;;;19.20;64.40;;;;;;10009002;28;20026;-60
2022/05/27 01:18:18;;;;;;;2.10;0.95;;;19.10;64.70;;;;;;10045018;28;20053;-61
2022/05/27 01:23:21;;;;;;;1.65;1.02;;;19.10;64.80;;;;;;10012574;28;20034;-59
2022/05/27 01:28:29;;;;;;;1.30;1.20;;;19.10;65.10;;;;;;10034599;28;20193;-60
2022/05/27 01:33:43;;;;;;;2.15;1.00;;;19.00;65.30;;;;;;10031515;28;20037;-62
2022/05/27 01:38:49;;;;;;;1.75;1.10;;;19.00;65.70;;;;;;10017039;28;20018;-65
2022/05/27 01:44:03;;;;;;;;;;;18.80;65.70;;;;;;10018593;28;20034;-62
2022/05/27 01:49:14;;;;;;;2.78;1.33;;;18.90;65.90;;;;;;10006358;28;19912;-62
2022/05/27 01:54:16;;;;;;;1.85;1.33;;;18.90;65.70;;;;;;10027335;28;20036;-61
2022/05/27 01:59:13;;;;;;;2.67;1.30;;;19.00;66.00;;;;;;10018869;28;20121;-61
2022/05/27 02:04:10;;;;;;;3.80;1.42;;;18.90;66.10;;;;;;10026015;28;20101;-63
2022/05/27 02:09:09;;;;;;;5.03;1.27;;;18.80;66.50;;;;;;10021337;28;20022;-61
2022/05/27 02:14:21;;;;;;;1.95;1.27;;;18.80;66.70;;;;;;10019733;28;20030;-62
2022/05/27 02:19:21;;;;;;;2.10;1.58;;;18.70;67.60;;;;;;10010631;28;20077;-59
2022/05/27 02:24:27;;;;;;;2.65;1.20;;;18.60;67.90;;;;;;10034952;28;20623;-61
2022/05/27 02:29:22;;;;;;;2.17;1.38;;;18.60;68.20;;;;;;10036413;28;20026;-70
2022/05/27 02:39:32;;;;;;;2.85;1.55;;;18.50;69.00;;;;;;10024439;28;20091;-62
2022/05/27 02:44:28;;;;;;;6.22;2.40;;;18.40;69.20;;;;;;10016216;28;20515;-59
2022/05/27 02:49:30;;;;;;;4.53;2.30;;;18.20;69.50;;;;;;9997312;28;20303;-60
2022/05/27 02:55:00;;;;;;;2.03;1.30;;;18.20;70.30;;;;;;10015105;28;20484;-66
2022/05/27 02:59:52;;;;;;;2.67;1.60;;;18.40;70.70;;;;;;10011805;28;20038;-58
2022/05/27 03:04:59;;;;;;;2.58;1.58;;;18.30;70.70;;;;;;10028645;28;20488;-61
2022/05/27 03:10:09;;;;;;;2.72;1.50;;;18.40;71.10;;;;;;10026506;28;20026;-61
2022/05/27 03:15:03;;;;;;;2.38;1.33;;;18.50;71.00;;;;;;10005744;28;20448;-60
2022/05/27 03:20:06;;;;;;;2.55;1.23;;;18.70;71.60;;;;;;10038623;28;20052;-62
2022/05/27 03:24:59;;;;;;;1.35;1.25;;;18.70;71.30;;;;;;10034132;28;20021;-60
2022/05/27 03:29:53;;;;;;;1.80;1.38;;;18.60;71.30;;;;;;10038113;28;20032;-59
2022/05/27 03:35:09;;;;;;;1.55;1.15;;;18.50;71.60;;;;;;10032175;28;20052;-60
2022/05/27 03:40:14;;;;;;;1.73;1.10;;;18.50;72.00;;;;;;10004430;28;20061;-60
2022/05/27 03:45:09;;;;;;;2.45;1.15;;;18.30;72.10;;;;;;10018685;28;20038;-60
2022/05/27 03:49:59;;;;;;;6.57;1.50;;;18.20;72.40;;;;;;10002600;28;20048;-61
2022/05/27 03:54:50;;;;;;;7.80;1.92;;;18.10;72.90;;;;;;10029136;28;20064;-60
2022/05/27 03:59:40;;;;;;;2.38;1.30;;;18.10;73.00;;;;;;10033447;28;20030;-60
2022/05/27 04:04:31;;;;;;;3.33;1.58;;;18.10;73.50;;;;;;10028576;28;20021;-60
2022/05/27 04:09:24;;;;;;;3.72;1.38;;;18.20;73.40;;;;;;10027940;28;20659;-62
2022/05/27 04:14:16;;;;;;;3.45;1.45;;;18.20;73.60;;;;;;10025925;28;20044;-62
2022/05/27 04:19:07;;;;;;;1.60;1.30;;;18.10;74.10;;;;;;10031214;28;20046;-61
2022/05/27 04:23:58;;;;;;;1.23;1.05;;;18.30;74.20;;;;;;10043582;28;20373;-61
2022/05/27 04:28:49;;;;;;;2.45;1.30;;;18.40;74.10;;;;;;10019356;28;20430;-67
2022/05/27 04:33:40;;;;;;;4.18;1.63;;;18.40;74.40;;;;;;10033392;28;20065;-64
2022/05/27 04:38:31;;;;;;;3.28;1.75;;;18.30;74.50;;;;;;10024832;28;20400;-65
2022/05/27 04:43:22;;;;;;;1.67;1.00;;;18.30;75.10;;;;;;10003765;28;20029;-59
2022/05/27 04:48:13;;;;;;;2.65;1.60;;;18.50;74.80;;;;;;10016738;28;20407;-59
2022/05/27 04:53:04;;;;;;;2.72;1.15;;;18.50;75.20;;;;;;10020158;28;20443;-63
2022/05/27 04:57:55;;;;;;;3.30;1.55;;;18.50;75.20;;;;;;10038954;28;20046;-64
2022/05/27 05:02:46;;;;;;;1.98;1.52;;;18.60;75.50;;;;;;10018134;28;20100;-66
2022/05/27 05:07:40;;;;;;;2.25;1.45;;;18.80;75.40;;;;;;10020165;28;20049;-61
2022/05/27 05:12:31;;;;;;;5.95;1.50;;;18.80;75.50;;;;;;10020436;28;20025;-66
2022/05/27 05:17:22;;;;;;;2.75;1.92;;;18.70;76.50;;;;;;10021067;28;20068;-66
2022/05/27 05:22:13;;;;;;;12.52;1.90;;;18.70;75.80;;;;;;10038333;28;20030;-67
2022/05/27 05:27:04;;;;;;;2.80;1.70;;;18.60;76.10;;;;;;10031658;28;20053;-59
2022/05/27 05:31:54;;;;;;;4.22;1.48;;;18.50;76.40;;;;;;10031567;28;20519;-61
2022/05/27 05:36:45;;;;;;;4.78;1.52;;;18.50;76.60;;;;;;10007710;28;20173;-59
2022/05/27 05:41:38;;;;;;;2.15;1.60;;;18.40;76.90;;;;;;10020078;28;20052;-60
2022/05/27 05:46:32;;;;;;;1.40;1.17;;;18.30;77.80;;;;;;10013239;28;20117;-60
2022/05/27 05:51:23;;;;;;;1.95;1.40;;;18.40;77.30;;;;;;10025018;28;20594;-60
2022/05/27 05:56:14;;;;;;;2.60;1.55;;;18.40;77.30;;;;;;10038683;28;20045;-60
2022/05/27 06:01:04;;;;;;;1.60;1.13;;;18.40;77.40;;;;;;10018732;28;20497;-60
2022/05/27 06:05:55;;;;;;;1.65;1.08;;;18.40;77.50;;;;;;10018194;28;20080;-60
2022/05/27 06:10:46;;;;;;;1.60;1.20;;;18.50;77.40;;;;;;10005326;28;20321;-60
2022/05/27 06:15:37;;;;;;;1.30;0.95;;;18.40;77.90;;;;;;10023752;28;20515;-60
2022/05/27 06:20:28;;;;;;;1.77;0.90;;;18.50;77.80;;;;;;10037932;28;20049;-59
2022/05/27 06:25:19;;;;;;;2.75;1.13;;;18.40;77.70;;;;;;10043777;28;20100;-61
2022/05/27 06:35:20;;;;;;;3.65;1.30;;;18.30;78.00;;;;;;10037246;28;20048;-62
2022/05/27 06:40:11;;;;;;;1.70;1.35;;;18.20;78.20;;;;;;10013406;28;20040;-60
2022/05/27 06:45:03;;;;;;;2.50;1.27;;;18.30;78.20;;;;;;10025031;28;20033;-61
2022/05/27 06:49:54;;;;;;;3.55;1.30;;;18.30;78.00;;;;;;10020299;28;20029;-59
2022/05/27 06:54:45;;;;;;;2.47;1.35;;;18.40;78.10;;;;;;10053014;28;20029;-60
2022/05/27 06:59:36;;;;;;;2.88;1.40;;;18.50;78.00;;;;;;10036177;28;20033;-59
2022/05/27 07:04:27;;;;;;;2.65;1.05;;;18.70;77.80;;;;;;10032448;28;20041;-65
2022/05/27 07:09:20;;;;;;;2.58;1.05;;;18.80;77.70;;;;;;10013349;28;20037;-62
2022/05/27 07:14:13;;;;;;;3.17;0.93;;;18.90;77.30;;;;;;10024771;28;20546;-61
2022/05/27 07:19:04;;;;;;;3.30;1.02;;;18.90;77.60;;;;;;10045619;28;20151;-58
2022/05/27 07:23:56;;;;;;;4.13;1.90;;;18.80;77.80;;;;;;10045779;28;20036;-60
2022/05/27 07:28:47;;;;;;;1.88;0.88;;;18.70;77.90;;;;;;10015466;28;20120;-59
2022/05/27 07:33:38;;;;;;;3.45;1.00;;;18.60;77.80;;;;;;10031845;28;20113;-60
2022/05/27 07:38:29;;;;;;;1.38;0.82;;;18.70;77.60;;;;;;10030855;28;20033;-62
2022/05/27 07:43:20;;;;;;;3.42;1.75;;;18.60;77.40;;;;;;10024704;28;20447;-68
2022/05/27 07:48:11;;;;;;;1.33;1.08;;;18.60;77.50;;;;;;10019413;28;20026;-61
2022/05/27 07:53:03;;;;;;;3.67;1.10;;;18.80;77.10;;;;;;10043928;28;20026;-63
2022/05/27 07:57:54;;;;;;;1.75;0.95;;;19.00;76.70;;;;;;10041586;28;20034;-59
2022/05/27 08:02:45;;;;;;;1.10;0.80;;;19.10;76.30;;;;;;10037932;28;20030;-60
2022/05/27 08:07:36;;;;;;;1.83;1.30;;;19.30;76.30;;;;;;10021810;28;20092;-66
2022/05/27 08:12:26;;;;;;;1.90;0.90;;;19.50;75.70;;;;;;10022239;28;20030;-59
2022/05/27 08:17:17;;;;;;;3.53;1.00;;;19.40;75.80;;;;;;10032442;28;20119;-64
2022/05/27 08:22:08;;;;;;;0.98;0.80;;;19.60;75.30;;;;;;10044455;28;20021;-60
2022/05/27 08:26:58;;;;;;;0.77;0.73;;;19.80;74.90;;;;;;10034548;28;20029;-66
2022/05/27 08:31:49;;;;;;;1.10;0.98;;;19.90;74.70;;;;;;10033469;28;20026;-64
2022/05/27 08:42:14;;;;;;;1.50;0.88;;;19.70;74.30;;;;;;10018468;28;20048;-62
2022/05/27 08:47:08;;;;;;;;;;;19.60;73.80;;;;;;10017780;28;20515;-63
2022/05/27 08:52:01;;;;;;;1.42;0.95;;;19.60;74.30;;;;;;10032375;28;19909;-64
2022/05/27 09:02:07;;;;;;;1.65;0.88;;;19.90;73.10;;;;;;10038442;28;20411;-63
2022/05/27 09:07:36;;;;;;;1.67;0.80;;;20.00;72.60;;;;;;10018188;28;20072;-64
2022/05/27 09:12:55;;;;;;;1.25;0.73;;;20.00;71.40;;;;;;10021606;28;20080;-65
2022/05/27 09:18:11;;;;;;;1.60;0.90;;;19.90;72.00;;;;;;10033084;28;20041;-62
2022/05/27 09:23:13;;;;;;;2.20;0.73;;;20.00;71.50;;;;;;10032336;28;20032;-64
2022/05/27 09:28:04;;;;;;;1.38;0.88;;;20.10;71.50;;;;;;10032865;28;20475;-65
2022/05/27 09:32:58;;;;;;;1.25;1.02;;;20.20;71.00;;;;;;10028621;28;20025;-61
2022/05/27 09:37:52;;;;;;;2.97;0.85;;;20.50;70.30;;;;;;10023140;28;20038;-62
2022/05/27 09:43:08;;;;;;;1.17;0.90;;;20.30;70.20;;;;;;10017265;28;20081;-65
2022/05/27 09:48:01;;;;;;;1.40;1.23;;;20.70;69.40;;;;;;10013431;28;20018;-68
2022/05/27 09:52:56;;;;;;;3.08;1.30;;;20.70;69.50;;;;;;10035281;28;20026;-62
2022/05/27 09:58:03;;;;;;;1.33;1.13;;;21.00;69.00;;;;;;10030312;28;20042;-62
2022/05/27 10:02:54;;;;;;;1.02;0.90;;;21.30;68.30;;;;;;9999507;28;20098;-62
2022/05/27 10:07:55;;;;;;;1.80;1.17;;;21.50;68.10;;;;;;10000921;28;20138;-61
2022/05/27 10:12:47;;;;;;;1.33;1.10;;;21.50;68.00;;;;;;10021480;28;20032;-62
2022/05/27 10:17:38;;;;;;;1.52;0.95;;;21.40;67.90;;;;;;10032489;28;20523;-62
2022/05/27 10:22:30;;;;;;;1.95;1.63;;;21.20;68.00;;;;;;10040898;28;20097;-65
2022/05/27 10:27:20;;;;;;;1.38;0.90;;;21.10;68.10;;;;;;10027823;28;20109;-63
2022/05/27 10:32:27;;;;;;;2.45;0.90;;;21.20;68.00;;;;;;10027717;28;20109;-60
2022/05/27 10:37:33;;;;;;;4.63;1.20;;;21.10;68.30;;;;;;10016587;28;20038;-61
2022/05/27 10:42:42;;;;;;;2.22;0.90;;;21.50;67.80;;;;;;10014136;28;20412;-65
2022/05/27 10:47:38;;;;;;;2.10;1.25;;;21.30;67.60;;;;;;10011836;28;20054;-62
2022/05/27 10:53:16;;;;;;;4.72;1.27;;;21.20;68.10;;;;;;10023726;28;20029;-65
2022/05/27 11:03:48;;;;;;;2.58;1.13;;;21.40;67.10;;;;;;10027157;28;20028;-59
2022/05/27 11:09:05;;;;;;;1.90;1.10;;;21.30;67.40;;;;;;10021711;28;20021;-64
2022/05/27 11:19:45;;;;;;;2.85;1.27;;;21.30;67.60;;;;;;10047612;28;20191;-62
2022/05/27 11:25:15;;;;;;;1.63;1.40;;;21.30;67.00;;;;;;10046502;28;20060;-62
2022/05/27 11:30:12;;;;;;;1.33;1.15;;;21.30;67.00;;;;;;10039968;28;20314;-65
2022/05/27 11:35:21;;;;;;;1.80;1.35;;;21.50;66.70;;;;;;10034751;28;20044;-63
2022/05/27 11:40:30;;;;;;;0.98;0.80;;;21.60;66.50;;;;;;10020484;28;20029;-60
2022/05/27 11:45:29;;;;;;;1.27;0.98;;;21.70;66.30;;;;;;10022346;28;20034;-61
2022/05/27 11:50:26;;;;;;;2.05;1.00;;;21.90;66.20;;;;;;10016827;28;20443;-61
2022/05/27 11:55:29;;;;;;;1.67;0.95;;;22.20;65.70;;;;;;10040927;28;20043;-60
2022/05/27 12:00:26;;;;;;;1.45;0.90;;;22.40;65.20;;;;;;10037721;28;20031;-59
2022/05/27 12:05:33;;;;;;;1.88;1.20;;;22.40;65.10;;;;;;10023262;28;20050;-58
2022/05/27 12:10:24;;;;;;;0.98;0.88;;;22.70;64.60;;;;;;10022607;28;20064;-59
2022/05/27 12:15:46;;;;;;;1.70;0.73;;;22.70;64.30;;;;;;10024684;28;20111;-62
2022/05/27 12:20:38;;;;;;;0.80;0.70;;;22.40;64.20;;;;;;10013331;28;20218;-60
2022/05/27 12:25:34;;;;;;;3.28;1.02;;;21.90;64.80;;;;;;10041357;28;20108;-59
2022/05/27 12:30:32;;;;;;;1.27;0.60;;;21.60;64.90;;;;;;10037633;28;20022;-60
2022/05/27 12:35:33;;;;;;;1.27;0.82;;;21.30;65.10;;;;;;10014053;28;20045;-63
2022/05/27 12:40:30;;;;;;;0.73;0.60;;;21.20;65.10;;;;;;10025941;28;20495;-60
2022/05/27 12:45:46;;;;;;;3.00;0.90;;;21.00;65.60;;;;;;10022236;28;20531;-65
2022/05/27 12:50:39;;;;;;;1.17;0.85;;;21.20;65.40;;;;;;10016157;28;20377;-60
2022/05/27 13:01:04;;;;;;;1.05;0.70;;;21.20;65.50;;;;;;10038835;28;20141;-64
2022/05/27 13:06:14;;;;;;;2.20;0.60;;;21.30;65.40;;;;;;10019850;28;20072;-60
2022/05/27 13:11:04;;;;;;;1.05;0.77;;;21.50;65.20;;;;;;10024113;28;20064;-59
2022/05/27 13:16:23;;;;;;;0.98;0.80;;;21.80;65.30;;;;;;10026228;28;20077;-60
2022/05/27 13:21:48;;;;;;;0.90;0.73;;;22.80;64.10;;;;;;10041619;28;20040;-61
2022/05/27 13:27:00;;;;;;;1.08;0.75;;;23.80;62.10;;;;;;10039693;28;20091;-60
2022/05/27 13:31:57;;;;;;;2.22;0.88;;;24.40;63.20;;;;;;10036351;28;20388;-59
2022/05/27 13:36:50;;;;;;;1.52;0.70;;;23.50;63.10;;;;;;10030093;28;20034;-60
2022/05/27 13:41:46;;;;;;;1.10;1.00;;;23.40;63.20;;;;;;10021937;28;20070;-61
2022/05/27 13:46:44;;;;;;;0.85;0.70;;;23.50;62.80;;;;;;10011823;28;20468;-59
2022/05/27 13:51:45;;;;;;;1.05;0.82;;;23.70;62.30;;;;;;10017179;28;20349;-60
2022/05/27 13:56:38;;;;;;;0.80;0.63;;;22.80;63.20;;;;;;10039838;28;20447;-61
2022/05/27 14:01:46;;;;;;;1.25;0.77;;;22.80;63.10;;;;;;10032934;28;20022;-60
2022/05/27 14:06:37;;;;;;;1.25;0.88;;;22.90;62.90;;;;;;10015491;28;20109;-60
2022/05/27 14:11:31;;;;;;;1.38;0.85;;;22.40;63.60;;;;;;10020993;28;20046;-59
2022/05/27 14:16:32;;;;;;;0.88;0.70;;;22.00;64.30;;;;;;10022744;28;20081;-61
2022/05/27 14:26:37;;;;;;;3.25;1.30;;;21.30;65.00;;;;;;10038059;28;20036;-63
2022/05/27 14:31:36;;;;;;;1.10;1.00;;;21.30;65.50;;;;;;10013777;28;20021;-61
2022/05/27 14:36:29;;;;;;;1.05;0.80;;;21.20;65.60;;;;;;10026910;28;20038;-61
2022/05/27 14:41:24;;;;;;;1.85;1.45;;;21.00;65.80;;;;;;10020269;28;20025;-59
2022/05/27 14:46:16;;;;;;;;;;;20.80;66.60;;;;;;10017823;28;20033;-59
2022/05/27 14:51:23;;;;;;;2.72;1.00;;;20.80;67.40;;;;;;10019595;28;20379;-62
2022/05/27 14:56:20;;;;;;;2.13;1.10;;;20.90;66.80;;;;;;10025768;28;20038;-62
2022/05/27 15:01:26;;;;;;;1.23;0.85;;;21.00;66.90;;;;;;10033601;28;20439;-61
2022/05/27 15:06:19;;;;;;;2.08;1.20;;;20.90;67.20;;;;;;10013303;28;20026;-60
2022/05/27 15:11:16;;;;;;;1.92;1.50;;;20.80;67.70;;;;;;10027802;28;20113;-60
2022/05/27 15:16:13;;;;;;;2.33;1.83;;;20.80;68.10;;;;;;10032577;28;20646;-61
2022/05/27 15:21:09;;;;;;;1.42;1.25;;;20.80;67.90;;;;;;10030689;28;20033;-61
2022/05/27 15:36:23;;;;;;;2.92;1.60;;;20.90;68.40;;;;;;10024189;28;20037;-62
2022/05/27 15:41:20;;;;;;;1.45;1.30;;;21.10;68.40;;;;;;10025185;28;20024;-60
2022/05/27 15:46:13;;;;;;;1.75;1.60;;;21.00;68.80;;;;;;10017588;28;20033;-63
2022/05/27 15:51:05;;;;;;;4.38;2.42;;;21.10;68.90;;;;;;10028358;28;20022;-66
2022/05/27 15:55:56;;;;;;;3.08;1.70;;;21.50;68.90;;;;;;10044232;28;20037;-60
2022/05/27 16:00:47;;;;;;;2.75;1.83;;;22.40;67.70;;;;;;10041284;28;20373;-63
2022/05/27 16:05:38;;;;;;;4.25;1.63;;;22.90;67.30;;;;;;10017411;28;20025;-59
2022/05/27 16:10:33;;;;;;;2.42;1.20;;;25.50;64.40;;;;;;10006054;28;20037;-65
2022/05/27 16:15:24;;;;;;;2.50;1.10;;;24.60;64.40;;;;;;10027842;28;20125;-66
2022/05/27 16:20:15;;;;;;;2.15;1.40;;;24.70;63.90;;;;;;10051351;28;20446;-63
2022/05/27 16:25:10;;;;;;;1.70;1.20;;;23.60;65.40;;;;;;10035347;28;20087;-61
2022/05/27 16:30:02;;;;;;;2.63;1.40;;;25.50;63.20;;;;;;10036878;28;20025;-60
2022/05/27 16:34:53;;;;;;;2.60;1.30;;;29.50;58.00;;;;;;10033990;28;20047;-65
2022/05/27 16:39:44;;;;;;;1.30;1.20;;;30.40;55.50;;;;;;10020855;28;20088;-61
2022/05/27 16:44:36;;;;;;;2.50;1.20;;;29.70;55.70;;;;;;10020264;28;20166;-67
2022/05/27 16:49:27;;;;;;;2.92;1.40;;;31.20;53.20;;;;;;10005643;28;20018;-65
2022/05/27 16:54:18;;;;;;;1.30;1.02;;;31.30;51.40;;;;;;10039156;28;20442;-65
2022/05/27 16:59:09;;;;;;;2.13;1.50;;;30.70;50.50;;;;;;10020544;28;20516;-64
2022/05/27 17:04:00;;;;;;;2.03;1.48;;;31.20;50.20;;;;;;10028469;28;20171;-59
2022/05/27 17:08:51;;;;;;;4.65;1.30;;;32.00;48.30;;;;;;10024759;28;20175;-66
2022/05/27 17:13:44;;;;;;;1.85;1.20;;;31.30;48.00;;;;;;10021032;28;20032;-61
2022/05/27 17:18:35;;;;;;;1.15;1.05;;;31.70;47.60;;;;;;10038247;28;20470;-60
2022/05/27 17:23:25;;;;;;;1.75;1.20;;;30.80;47.80;;;;;;10042902;28;20039;-67
2022/05/27 17:28:16;;;;;;;1.92;1.25;;;30.40;47.70;;;;;;10038501;28;20018;-60
2022/05/27 17:33:08;;;;;;;1.55;1.25;;;29.70;47.70;;;;;;10028808;28;20341;-59
2022/05/27 17:37:58;;;;;;;1.83;1.73;;;28.50;48.60;;;;;;10025343;28;20025;-66
2022/05/27 17:42:49;;;;;;;2.78;1.42;;;28.70;49.10;;;;;;10017133;28;20053;-60
2022/05/27 17:52:49;;;;;;;2.13;1.10;;;28.90;48.40;;;;;;10012911;28;20311;-60
2022/05/27 17:57:40;;;;;;;1.92;1.40;;;26.20;51.10;;;;;;10024881;28;20037;-62
2022/05/27 18:02:31;;;;;;;1.52;1.27;;;24.20;53.50;;;;;;10036105;28;20041;-64
2022/05/27 18:07:22;;;;;;;1.90;1.25;;;23.50;54.60;;;;;;10018912;28;20108;-59
2022/05/27 18:12:13;;;;;;;1.67;1.00;;;23.10;54.70;;;;;;10003231;28;20067;-59
2022/05/27 18:17:04;;;;;;;1.88;1.60;;;22.90;55.30;;;;;;10008872;28;20045;-61
2022/05/27 18:21:55;;;;;;;2.53;1.75;;;22.50;55.70;;;;;;10048005;28;20048;-65
2022/05/27 18:26:45;;;;;;;1.73;1.27;;;22.10;56.30;;;;;;10039453;28;20511;-63
2022/05/27 18:31:36;;;;;;;2.47;1.48;;;21.90;56.90;;;;;;10034945;28;20483;-63
2022/05/27 18:36:27;;;;;;;2.55;1.55;;;21.70;57.30;;;;;;10036524;28;20036;-61
2022/05/27 18:41:19;;;;;;;3.47;1.77;;;21.60;57.60;;;;;;10029903;28;20078;-61
2022/05/27 18:46:10;;;;;;;2.85;1.67;;;21.50;58.00;;;;;;10024153;28;20030;-63
2022/05/27 18:51:01;;;;;;;3.60;1.75;;;21.30;58.50;;;;;;10025514;28;20022;-61
2022/05/27 18:55:51;;;;;;;1.77;1.45;;;21.20;58.80;;;;;;10048285;28;20574;-63
2022/05/27 19:00:42;;;;;;;3.17;1.73;;;21.10;59.10;;;;;;10026963;28;20480;-63
2022/05/27 19:05:38;;;;;;;3.22;1.55;;;20.90;59.50;;;;;;10024651;28;20630;-64
2022/05/27 19:10:28;;;;;;;2.05;1.27;;;20.90;59.80;;;;;;10031528;28;20025;-59
2022/05/27 19:15:19;;;;;;;2.25;1.50;;;20.80;60.10;;;;;;10026706;28;20758;-62
2022/05/27 19:25:19;;;;;;;2.65;1.52;;;20.80;60.60;;;;;;10045441;28;20554;-61
2022/05/27 19:30:11;;;;;;;2.05;1.42;;;20.70;60.80;;;;;;10037594;28;20040;-63
2022/05/27 19:35:02;;;;;;;2.70;1.63;;;20.70;61.10;;;;;;10032205;28;20577;-62
2022/05/27 19:39:52;;;;;;;2.25;1.85;;;20.60;61.70;;;;;;10018268;28;20037;-59
2022/05/27 19:44:43;;;;;;;2.75;2.10;;;20.50;62.10;;;;;;10018329;28;20018;-60
2022/05/27 19:49:34;;;;;;;3.50;1.67;;;20.40;62.50;;;;;;10017965;28;20176;-62
2022/05/27 19:54:26;;;;;;;4.18;1.92;;;20.40;62.80;;;;;;10043439;28;20075;-61
2022/05/27 19:59:32;;;;;;;2.15;1.33;;;20.30;62.90;;;;;;10041565;28;20022;-63
2022/05/27 20:09:34;;;;;;;3.72;1.55;;;20.20;63.90;;;;;;10030398;28;20037;-59
2022/05/27 20:14:25;;;;;;;2.60;1.58;;;20.10;63.90;;;;;;10009306;28;20030;-60
2022/05/27 20:19:16;;;;;;;4.15;1.88;;;20.00;64.30;;;;;;10044079;28;20053;-63
2022/05/27 20:24:09;;;;;;;2.83;1.92;;;19.90;64.90;;;;;;10041063;28;20061;-60
2022/05/27 20:29:01;;;;;;;4.20;2.20;;;19.90;65.20;;;;;;10035714;28;20109;-60
2022/05/27 20:33:52;;;;;;;2.72;1.50;;;19.80;65.60;;;;;;10020058;28;20053;-66
2022/05/27 20:38:43;;;;;;;5.47;2.13;;;19.80;65.80;;;;;;10026939;28;20125;-65
2022/05/27 20:43:34;;;;;;;4.13;1.92;;;19.70;66.20;;;;;;10019200;28;20108;-70
2022/05/27 20:48:25;;;;;;;4.55;2.50;;;19.50;66.70;;;;;;9999951;28;20104;-67
2022/05/27 20:53:15;;;;;;;2.13;1.42;;;19.40;67.30;;;;;;10042113;28;20017;-62
2022/05/27 20:58:06;;;;;;;2.60;1.58;;;19.30;67.70;;;;;;10039229;28;20050;-65
2022/05/27 21:02:57;;;;;;;2.90;1.55;;;19.30;67.90;;;;;;10029261;28;20068;-68
2022/05/27 21:07:47;;;;;;;2.00;1.38;;;19.20;68.50;;;;;;10020112;28;20064;-63
2022/05/27 21:12:38;;;;;;;2.60;2.08;;;19.10;68.80;;;;;;10022719;28;20022;-67
2022/05/27 21:17:32;;;;;;;1.60;1.33;;;19.00;69.10;;;;;;10028362;28;20421;-67
2022/05/27 21:22:23;;;;;;;2.67;1.92;;;18.90;69.40;;;;;;10038073;28;20485;-66
2022/05/27 21:27:13;;;;;;;4.50;1.70;;;19.00;69.60;;;;;;10029056;28;20042;-63
2022/05/27 21:32:05;;;;;;;2.58;1.67;;;19.00;69.70;;;;;;10034515;28;20508;-64
2022/05/27 21:36:56;;;;;;;6.00;1.85;;;18.90;70.20;;;;;;10028662;28;20056;-65
2022/05/27 21:41:47;;;;;;;3.08;1.67;;;18.80;70.60;;;;;;10021090;28;20028;-66
2022/05/27 21:46:38;;;;;;;2.28;1.80;;;18.80;71.00;;;;;;10012988;28;20091;-65
2022/05/27 21:51:30;;;;;;;4.10;1.80;;;18.70;71.30;;;;;;10009730;28;20017;-63
2022/05/27 21:56:21;;;;;;;6.20;2.05;;;18.70;71.30;;;;;;10037876;28;20516;-63
2022/05/27 22:01:14;;;;;;;3.25;1.13;;;18.60;71.80;;;;;;10030880;28;20108;-64
2022/05/27 22:06:07;;;;;;;1.40;1.13;;;18.60;72.30;;;;;;10017897;28;20064;-60
2022/05/27 22:16:07;;;;;;;2.83;1.85;;;18.60;72.60;;;;;;10022913;28;20108;-61
2022/05/27 22:20:59;;;;;;;4.88;1.67;;;18.50;72.60;;;;;;10014408;28;20037;-60
2022/05/27 22:25:50;;;;;;;3.08;1.25;;;18.40;72.80;;;;;;10031040;28;20030;-60
2022/05/27 22:30:41;;;;;;;4.05;1.80;;;18.50;72.80;;;;;;10030074;28;20025;-59
2022/05/27 22:35:33;;;;;;;2.25;1.60;;;18.50;73.00;;;;;;10027775;28;20034;-60
2022/05/27 22:40:24;;;;;;;2.53;1.40;;;18.50;73.00;;;;;;10021563;28;20026;-61
2022/05/27 22:45:15;;;;;;;2.80;1.65;;;18.40;73.40;;;;;;10013697;28;20069;-62
2022/05/27 22:50:07;;;;;;;2.05;1.50;;;18.40;73.50;;;;;;10017669;28;20054;-62
2022/05/27 22:54:58;;;;;;;2.72;2.47;;;18.40;74.20;;;;;;10004703;28;20123;-60
2022/05/27 22:59:49;;;;;;;2.53;1.48;;;18.30;74.00;;;;;;10021293;28;20021;-62
2022/05/27 23:04:43;;;;;;;1.77;1.48;;;18.30;74.10;;;;;;10027497;28;20084;-62
2022/05/27 23:09:34;;;;;;;3.03;1.90;;;18.10;74.70;;;;;;10010262;28;20041;-62
2022/05/27 23:19:35;;;;;;;2.05;1.30;;;17.90;75.40;;;;;;10024180;28;20049;-60
2022/05/27 23:24:26;;;;;;;2.30;1.88;;;17.90;75.90;;;;;;10025906;28;20395;-66
2022/05/27 23:29:17;;;;;;;3.03;1.50;;;17.80;75.80;;;;;;10023472;28;20022;-63
2022/05/27 23:34:07;;;;;;;3.13;2.33;;;17.90;75.80;;;;;;10013411;28;20068;-66
2022/05/27 23:38:58;;;;;;;3.47;1.95;;;17.80;76.30;;;;;;10020761;28;20032;-64
2022/05/27 23:43:50;;;;;;;3.58;2.05;;;17.70;76.70;;;;;;10020623;28;20075;-64
2022/05/27 23:48:41;;;;;;;1.90;1.40;;;17.60;76.90;;;;;;10024751;28;20480;-64
2022/05/27 23:53:32;;;;;;;2.25;1.77;;;17.50;77.50;;;;;;10025521;28;20400;-60
2022/05/27 23:58:33;;;;;;;3.40;2.28;;;17.40;77.50;;;;;;10023712;28;20026;-59
